sensor_id;sensor_type;location;lat;lon;timestamp;pressure;altitude;pressure_sealevel;temperature;humidity
75497;BME280;64074;47.540;19.072;2023-12-14T00:02:10;99232.03;;;5.56;91.62
75497;BME280;64074;47.540;19.072;2023-12-14T00:05:30;99240.31;;;5.60;91.17
75497;BME280;64074;47.540;19.072;2023-12-14T00:08:51;99235.34;;;5.67;91.13
75497;BME280;64074;47.540;19.072;2023-12-14T00:12:18;99223.50;;;5.68;90.78
75497;BME280;64074;47.540;19.072;2023-12-14T00:15:31;99224.09;;;5.65;91.60
75497;BME280;64074;47.540;19.072;2023-12-14T00:18:51;99238.69;;;5.59;91.61
75497;BME280;64074;47.540;19.072;2023-12-14T00:22:11;99236.75;;;5.64;91.63
75497;BME280;64074;47.540;19.072;2023-12-14T00:25:31;99232.38;;;5.49;92.05
75497;BME280;64074;47.540;19.072;2023-12-14T00:28:51;99232.19;;;5.41;92.17
75497;BME280;64074;47.540;19.072;2023-12-14T00:32:18;99248.63;;;5.39;91.67
75497;BME280;64074;47.540;19.072;2023-12-14T00:35:32;99266.53;;;5.49;91.66
75497;BME280;64074;47.540;19.072;2023-12-14T00:38:49;99277.94;;;5.60;91.38
75497;BME280;64074;47.540;19.072;2023-12-14T00:41:56;99288.69;;;5.60;91.34
75497;BME280;64074;47.540;19.072;2023-12-14T00:45:06;99307.63;;;5.73;91.01
75497;BME280;64074;47.540;19.072;2023-12-14T00:48:29;99313.91;;;5.64;91.13
75497;BME280;64074;47.540;19.072;2023-12-14T00:51:38;99321.75;;;5.60;91.66
75497;BME280;64074;47.540;19.072;2023-12-14T00:54:47;99323.56;;;5.65;91.71
75497;BME280;64074;47.540;19.072;2023-12-14T00:57:58;99334.75;;;5.77;91.12
75497;BME280;64074;47.540;19.072;2023-12-14T01:01:09;99354.47;;;5.67;91.96
75497;BME280;64074;47.540;19.072;2023-12-14T01:04:23;99366.59;;;5.65;91.69
75497;BME280;64074;47.540;19.072;2023-12-14T01:07:35;99356.63;;;5.89;90.80
75497;BME280;64074;47.540;19.072;2023-12-14T01:10:43;99359.59;;;5.87;91.15
75497;BME280;64074;47.540;19.072;2023-12-14T01:13:53;99365.53;;;5.90;90.14
75497;BME280;64074;47.540;19.072;2023-12-14T01:17:07;99361.13;;;5.99;90.35
75497;BME280;64074;47.540;19.072;2023-12-14T01:20:28;99338.56;;;5.95;89.96
75497;BME280;64074;47.540;19.072;2023-12-14T01:23:51;99323.31;;;6.09;89.59
75497;BME280;64074;47.540;19.072;2023-12-14T01:27:12;99317.34;;;6.12;89.35
75497;BME280;64074;47.540;19.072;2023-12-14T01:30:25;99306.75;;;6.02;90.22
75497;BME280;64074;47.540;19.072;2023-12-14T01:33:35;99291.00;;;5.90;90.38
75497;BME280;64074;47.540;19.072;2023-12-14T01:36:50;99288.44;;;5.80;90.85
75497;BME280;64074;47.540;19.072;2023-12-14T01:39:59;99290.44;;;5.69;91.25
75497;BME280;64074;47.540;19.072;2023-12-14T01:43:22;99285.78;;;5.56;91.61
75497;BME280;64074;47.540;19.072;2023-12-14T01:46:32;99289.13;;;5.67;91.17
75497;BME280;64074;47.540;19.072;2023-12-14T01:50:02;99277.72;;;5.56;91.43
75497;BME280;64074;47.540;19.072;2023-12-14T01:53:26;99264.94;;;5.48;91.39
75497;BME280;64074;47.540;19.072;2023-12-14T01:56:44;99272.88;;;5.34;91.97
75497;BME280;64074;47.540;19.072;2023-12-14T01:59:50;99269.44;;;5.29;93.02
75497;BME280;64074;47.540;19.072;2023-12-14T02:03:00;99277.75;;;5.32;92.65
75497;BME280;64074;47.540;19.072;2023-12-14T02:06:13;99291.34;;;5.17;93.38
75497;BME280;64074;47.540;19.072;2023-12-14T02:09:33;99317.13;;;5.18;94.31
75497;BME280;64074;47.540;19.072;2023-12-14T02:12:37;99324.50;;;5.31;93.67
75497;BME280;64074;47.540;19.072;2023-12-14T02:15:41;99336.44;;;5.44;93.24
75497;BME280;64074;47.540;19.072;2023-12-14T02:18:51;99332.44;;;5.41;93.58
75497;BME280;64074;47.540;19.072;2023-12-14T02:22:09;99322.22;;;5.43;92.98
75497;BME280;64074;47.540;19.072;2023-12-14T02:25:29;99329.03;;;5.36;92.88
75497;BME280;64074;47.540;19.072;2023-12-14T02:28:49;99323.00;;;5.44;93.03
75497;BME280;64074;47.540;19.072;2023-12-14T02:32:13;99331.56;;;5.51;92.89
75497;BME280;64074;47.540;19.072;2023-12-14T02:35:35;99317.59;;;5.49;92.56
75497;BME280;64074;47.540;19.072;2023-12-14T02:38:55;99324.22;;;5.56;92.29
75497;BME280;64074;47.540;19.072;2023-12-14T02:42:22;99325.31;;;5.55;91.82
75497;BME280;64074;47.540;19.072;2023-12-14T02:45:29;99355.19;;;5.54;91.71
75497;BME280;64074;47.540;19.072;2023-12-14T02:48:33;99356.72;;;5.60;92.02
75497;BME280;64074;47.540;19.072;2023-12-14T02:51:44;99355.41;;;5.57;91.58
75497;BME280;64074;47.540;19.072;2023-12-14T02:54:59;99332.72;;;5.64;91.69
75497;BME280;64074;47.540;19.072;2023-12-14T02:58:08;99322.34;;;5.57;91.57
75497;BME280;64074;47.540;19.072;2023-12-14T03:01:25;99306.28;;;5.52;92.86
75497;BME280;64074;47.540;19.072;2023-12-14T03:04:37;99298.72;;;5.54;92.53
75497;BME280;64074;47.540;19.072;2023-12-14T03:07:47;99300.59;;;5.53;93.33
75497;BME280;64074;47.540;19.072;2023-12-14T03:10:54;99312.09;;;5.59;92.28
75497;BME280;64074;47.540;19.072;2023-12-14T03:14:02;99315.44;;;5.70;92.44
75497;BME280;64074;47.540;19.072;2023-12-14T03:17:06;99336.69;;;5.71;92.35
75497;BME280;64074;47.540;19.072;2023-12-14T03:20:11;99346.00;;;5.79;91.87
75497;BME280;64074;47.540;19.072;2023-12-14T03:23:22;99352.34;;;5.88;91.22
75497;BME280;64074;47.540;19.072;2023-12-14T03:26:31;99357.41;;;5.71;91.35
75497;BME280;64074;47.540;19.072;2023-12-14T03:29:44;99356.25;;;5.77;91.34
75497;BME280;64074;47.540;19.072;2023-12-14T03:33:01;99374.06;;;5.73;91.73
75497;BME280;64074;47.540;19.072;2023-12-14T03:36:18;99377.41;;;5.60;92.72
75497;BME280;64074;47.540;19.072;2023-12-14T03:39:23;99385.56;;;5.54;92.99
75497;BME280;64074;47.540;19.072;2023-12-14T03:42:32;99391.28;;;5.72;91.95
75497;BME280;64074;47.540;19.072;2023-12-14T03:45:46;99403.50;;;5.59;92.80
75497;BME280;64074;47.540;19.072;2023-12-14T03:49:07;99397.50;;;5.67;91.75
75497;BME280;64074;47.540;19.072;2023-12-14T03:52:18;99422.22;;;5.69;92.33
75497;BME280;64074;47.540;19.072;2023-12-14T03:55:21;99430.56;;;5.68;92.20
75497;BME280;64074;47.540;19.072;2023-12-14T03:58:31;99430.28;;;5.69;92.25
75497;BME280;64074;47.540;19.072;2023-12-14T04:01:34;99423.28;;;5.68;92.24
75497;BME280;64074;47.540;19.072;2023-12-14T04:04:43;99426.78;;;5.69;91.89
75497;BME280;64074;47.540;19.072;2023-12-14T04:07:48;99424.97;;;5.64;92.46
75497;BME280;64074;47.540;19.072;2023-12-14T04:10:50;99425.00;;;5.59;92.57
75497;BME280;64074;47.540;19.072;2023-12-14T04:13:55;99430.34;;;5.64;92.12
75497;BME280;64074;47.540;19.072;2023-12-14T04:17:05;99429.25;;;5.65;92.08
75497;BME280;64074;47.540;19.072;2023-12-14T04:20:15;99440.56;;;5.62;92.16
75497;BME280;64074;47.540;19.072;2023-12-14T04:23:25;99437.38;;;5.60;92.22
75497;BME280;64074;47.540;19.072;2023-12-14T04:26:48;99447.94;;;5.51;92.64
75497;BME280;64074;47.540;19.072;2023-12-14T04:29:52;99433.47;;;5.47;92.43
75497;BME280;64074;47.540;19.072;2023-12-14T04:32:59;99433.72;;;5.51;92.75
75497;BME280;64074;47.540;19.072;2023-12-14T04:36:09;99442.34;;;5.48;92.75
75497;BME280;64074;47.540;19.072;2023-12-14T04:39:36;99455.78;;;5.48;91.96
75497;BME280;64074;47.540;19.072;2023-12-14T04:42:49;99455.53;;;5.44;91.77
75497;BME280;64074;47.540;19.072;2023-12-14T04:46:16;99458.13;;;5.54;91.76
75497;BME280;64074;47.540;19.072;2023-12-14T04:49:36;99465.22;;;5.45;92.71
75497;BME280;64074;47.540;19.072;2023-12-14T04:53:03;99473.72;;;5.23;93.05
75497;BME280;64074;47.540;19.072;2023-12-14T04:56:12;99474.25;;;5.25;94.12
75497;BME280;64074;47.540;19.072;2023-12-14T04:59:19;99481.38;;;5.40;93.09
75497;BME280;64074;47.540;19.072;2023-12-14T05:02:31;99477.94;;;5.35;93.51
75497;BME280;64074;47.540;19.072;2023-12-14T05:05:43;99474.22;;;5.31;94.38
75497;BME280;64074;47.540;19.072;2023-12-14T05:09:04;99478.66;;;5.11;94.05
75497;BME280;64074;47.540;19.072;2023-12-14T05:12:27;99470.59;;;5.11;94.95
75497;BME280;64074;47.540;19.072;2023-12-14T05:15:45;99493.13;;;5.15;94.58
75497;BME280;64074;47.540;19.072;2023-12-14T05:19:13;99485.72;;;5.02;95.03
75497;BME280;64074;47.540;19.072;2023-12-14T05:22:34;99483.97;;;5.21;94.11
75497;BME280;64074;47.540;19.072;2023-12-14T05:25:55;99493.34;;;5.19;94.28
75497;BME280;64074;47.540;19.072;2023-12-14T05:29:19;99500.09;;;5.21;94.38
75497;BME280;64074;47.540;19.072;2023-12-14T05:32:40;99513.41;;;4.98;95.42
75497;BME280;64074;47.540;19.072;2023-12-14T05:35:56;99522.13;;;5.18;94.39
75497;BME280;64074;47.540;19.072;2023-12-14T05:39:19;99521.91;;;5.10;94.98
75497;BME280;64074;47.540;19.072;2023-12-14T05:42:40;99528.94;;;5.06;95.11
75497;BME280;64074;47.540;19.072;2023-12-14T05:46:00;99540.13;;;5.23;94.72
75497;BME280;64074;47.540;19.072;2023-12-14T05:49:22;99545.84;;;5.06;94.99
75497;BME280;64074;47.540;19.072;2023-12-14T05:52:47;99539.03;;;5.24;94.81
75497;BME280;64074;47.540;19.072;2023-12-14T05:56:00;99554.63;;;5.22;94.77
75497;BME280;64074;47.540;19.072;2023-12-14T05:59:16;99559.13;;;5.32;94.79
75497;BME280;64074;47.540;19.072;2023-12-14T06:02:33;99560.44;;;5.34;93.97
75497;BME280;64074;47.540;19.072;2023-12-14T06:06:01;99568.31;;;5.25;94.41
75497;BME280;64074;47.540;19.072;2023-12-14T06:09:28;99565.91;;;5.24;94.60
75497;BME280;64074;47.540;19.072;2023-12-14T06:12:51;99567.50;;;5.20;94.08
75497;BME280;64074;47.540;19.072;2023-12-14T06:16:08;99568.03;;;5.27;93.92
75497;BME280;64074;47.540;19.072;2023-12-14T06:19:21;99570.59;;;5.42;93.45
75497;BME280;64074;47.540;19.072;2023-12-14T06:22:39;99570.28;;;5.49;93.24
75497;BME280;64074;47.540;19.072;2023-12-14T06:25:58;99567.84;;;5.52;92.43
75497;BME280;64074;47.540;19.072;2023-12-14T06:29:27;99570.97;;;5.65;91.94
75497;BME280;64074;47.540;19.072;2023-12-14T06:32:40;99581.28;;;5.52;92.36
75497;BME280;64074;47.540;19.072;2023-12-14T06:36:09;99583.97;;;5.52;92.53
75497;BME280;64074;47.540;19.072;2023-12-14T06:39:21;99584.25;;;5.51;92.67
75497;BME280;64074;47.540;19.072;2023-12-14T06:42:34;99583.78;;;5.39;93.35
75497;BME280;64074;47.540;19.072;2023-12-14T06:46:02;99593.09;;;5.56;92.82
75497;BME280;64074;47.540;19.072;2023-12-14T06:49:18;99600.63;;;5.54;92.23
75497;BME280;64074;47.540;19.072;2023-12-14T06:52:49;99590.59;;;5.65;92.21
75497;BME280;64074;47.540;19.072;2023-12-14T06:55:59;99610.81;;;5.57;91.99
75497;BME280;64074;47.540;19.072;2023-12-14T06:59:10;99601.75;;;5.48;92.68
75497;BME280;64074;47.540;19.072;2023-12-14T07:02:24;99611.63;;;5.58;92.26
75497;BME280;64074;47.540;19.072;2023-12-14T07:05:29;99622.66;;;5.56;91.82
75497;BME280;64074;47.540;19.072;2023-12-14T07:08:33;99617.28;;;5.56;91.79
75497;BME280;64074;47.540;19.072;2023-12-14T07:11:44;99635.44;;;5.70;91.11
75497;BME280;64074;47.540;19.072;2023-12-14T07:14:54;99638.47;;;5.63;90.99
75497;BME280;64074;47.540;19.072;2023-12-14T07:18:09;99643.09;;;5.57;91.50
75497;BME280;64074;47.540;19.072;2023-12-14T07:21:20;99650.94;;;5.49;91.67
75497;BME280;64074;47.540;19.072;2023-12-14T07:24:26;99665.63;;;5.62;91.40
75497;BME280;64074;47.540;19.072;2023-12-14T07:27:40;99660.16;;;5.77;90.75
75497;BME280;64074;47.540;19.072;2023-12-14T07:30:51;99664.78;;;5.71;90.84
75497;BME280;64074;47.540;19.072;2023-12-14T07:34:01;99669.03;;;5.77;90.01
75497;BME280;64074;47.540;19.072;2023-12-14T07:37:13;99672.88;;;5.66;91.09
75497;BME280;64074;47.540;19.072;2023-12-14T07:40:21;99676.34;;;5.67;91.23
75497;BME280;64074;47.540;19.072;2023-12-14T07:43:31;99674.69;;;5.76;90.59
75497;BME280;64074;47.540;19.072;2023-12-14T07:46:42;99691.63;;;5.76;91.14
75497;BME280;64074;47.540;19.072;2023-12-14T07:49:53;99684.69;;;5.65;91.14
75497;BME280;64074;47.540;19.072;2023-12-14T07:53:06;99699.63;;;5.86;90.78
75497;BME280;64074;47.540;19.072;2023-12-14T07:56:28;99697.47;;;5.88;89.97
75497;BME280;64074;47.540;19.072;2023-12-14T07:59:41;99702.91;;;5.78;90.41
75497;BME280;64074;47.540;19.072;2023-12-14T08:02:58;99706.13;;;5.80;89.94
75497;BME280;64074;47.540;19.072;2023-12-14T08:06:27;99713.59;;;5.94;89.96
75497;BME280;64074;47.540;19.072;2023-12-14T08:09:53;99720.06;;;5.93;89.59
75497;BME280;64074;47.540;19.072;2023-12-14T08:13:05;99723.22;;;6.05;88.83
75497;BME280;64074;47.540;19.072;2023-12-14T08:16:14;99732.63;;;6.07;88.77
75497;BME280;64074;47.540;19.072;2023-12-14T08:19:25;99728.59;;;6.05;88.37
75497;BME280;64074;47.540;19.072;2023-12-14T08:22:36;99732.97;;;5.91;89.38
75497;BME280;64074;47.540;19.072;2023-12-14T08:25:54;99731.38;;;5.84;90.13
75497;BME280;64074;47.540;19.072;2023-12-14T08:29:11;99743.28;;;6.17;88.63
75497;BME280;64074;47.540;19.072;2023-12-14T08:32:45;99755.28;;;6.35;88.00
75497;BME280;64074;47.540;19.072;2023-12-14T08:36:27;99756.00;;;6.12;88.77
75497;BME280;64074;47.540;19.072;2023-12-14T08:39:39;99756.41;;;6.29;88.11
75497;BME280;64074;47.540;19.072;2023-12-14T08:43:06;99764.09;;;6.41;87.84
75497;BME280;64074;47.540;19.072;2023-12-14T08:46:23;99757.25;;;6.25;88.02
75497;BME280;64074;47.540;19.072;2023-12-14T08:49:38;99762.03;;;6.33;87.88
75497;BME280;64074;47.540;19.072;2023-12-14T08:52:50;99759.63;;;6.31;87.71
75497;BME280;64074;47.540;19.072;2023-12-14T08:56:16;99760.09;;;6.38;87.36
75497;BME280;64074;47.540;19.072;2023-12-14T08:59:23;99761.41;;;6.46;87.03
75497;BME280;64074;47.540;19.072;2023-12-14T09:02:29;99773.19;;;6.16;87.72
75497;BME280;64074;47.540;19.072;2023-12-14T09:05:41;99774.53;;;6.53;86.59
75497;BME280;64074;47.540;19.072;2023-12-14T09:08:53;99774.00;;;6.51;86.40
75497;BME280;64074;47.540;19.072;2023-12-14T09:12:15;99791.28;;;6.78;86.12
75497;BME280;64074;47.540;19.072;2023-12-14T09:15:34;99789.19;;;6.99;84.80
75497;BME280;64074;47.540;19.072;2023-12-14T09:18:48;99789.28;;;6.89;84.86
75497;BME280;64074;47.540;19.072;2023-12-14T09:21:53;99785.94;;;6.73;85.11
75497;BME280;64074;47.540;19.072;2023-12-14T09:25:08;99791.13;;;6.94;84.32
75497;BME280;64074;47.540;19.072;2023-12-14T09:28:20;99796.31;;;6.85;84.94
75497;BME280;64074;47.540;19.072;2023-12-14T09:31:47;99795.09;;;6.72;85.06
75497;BME280;64074;47.540;19.072;2023-12-14T09:35:31;99799.59;;;6.82;85.18
75497;BME280;64074;47.540;19.072;2023-12-14T09:39:03;99812.66;;;6.70;85.82
75497;BME280;64074;47.540;19.072;2023-12-14T09:42:26;99814.56;;;6.93;85.03
75497;BME280;64074;47.540;19.072;2023-12-14T09:45:41;99817.00;;;6.95;84.59
75497;BME280;64074;47.540;19.072;2023-12-14T09:49:15;99819.88;;;7.03;84.31
75497;BME280;64074;47.540;19.072;2023-12-14T09:52:47;99811.91;;;6.88;84.94
75497;BME280;64074;47.540;19.072;2023-12-14T09:56:00;99821.31;;;6.96;84.63
75497;BME280;64074;47.540;19.072;2023-12-14T09:59:24;99821.72;;;7.08;84.52
75497;BME280;64074;47.540;19.072;2023-12-14T10:02:43;99814.50;;;7.03;85.00
75497;BME280;64074;47.540;19.072;2023-12-14T10:06:00;99827.78;;;7.19;84.49
75497;BME280;64074;47.540;19.072;2023-12-14T10:09:44;99832.84;;;7.01;84.06
75497;BME280;64074;47.540;19.072;2023-12-14T10:13:11;99837.22;;;7.21;83.31
75497;BME280;64074;47.540;19.072;2023-12-14T10:16:38;99841.25;;;7.24;83.56
75497;BME280;64074;47.540;19.072;2023-12-14T10:19:51;99846.53;;;7.58;82.22
75497;BME280;64074;47.540;19.072;2023-12-14T10:23:14;99839.41;;;7.67;81.66
75497;BME280;64074;47.540;19.072;2023-12-14T10:26:26;99848.53;;;7.23;83.26
75497;BME280;64074;47.540;19.072;2023-12-14T10:29:44;99860.47;;;7.65;82.36
75497;BME280;64074;47.540;19.072;2023-12-14T10:33:09;99860.75;;;7.63;81.80
75497;BME280;64074;47.540;19.072;2023-12-14T10:36:47;99861.25;;;7.47;82.24
75497;BME280;64074;47.540;19.072;2023-12-14T10:40:19;99857.53;;;7.61;81.81
75497;BME280;64074;47.540;19.072;2023-12-14T10:43:28;99862.34;;;7.69;81.33
75497;BME280;64074;47.540;19.072;2023-12-14T10:47:06;99868.91;;;7.58;82.22
75497;BME280;64074;47.540;19.072;2023-12-14T10:50:29;99866.16;;;7.63;81.42
75497;BME280;64074;47.540;19.072;2023-12-14T10:53:55;99873.28;;;7.54;82.63
75497;BME280;64074;47.540;19.072;2023-12-14T10:57:54;99878.16;;;7.76;81.48
75497;BME280;64074;47.540;19.072;2023-12-14T11:01:05;99885.91;;;7.59;81.77
75497;BME280;64074;47.540;19.072;2023-12-14T11:04:14;99887.50;;;7.36;83.40
75497;BME280;64074;47.540;19.072;2023-12-14T11:07:50;99893.03;;;7.21;83.55
75497;BME280;64074;47.540;19.072;2023-12-14T11:11:04;99890.75;;;7.33;83.67
75497;BME280;64074;47.540;19.072;2023-12-14T11:14:23;99901.41;;;7.48;82.96
75497;BME280;64074;47.540;19.072;2023-12-14T11:17:40;99900.38;;;7.44;83.19
75497;BME280;64074;47.540;19.072;2023-12-14T11:21:08;99905.47;;;7.17;84.53
75497;BME280;64074;47.540;19.072;2023-12-14T11:24:34;99901.25;;;7.34;84.19
75497;BME280;64074;47.540;19.072;2023-12-14T11:28:07;99904.09;;;7.48;83.54
75497;BME280;64074;47.540;19.072;2023-12-14T11:31:35;99903.06;;;7.68;83.13
75497;BME280;64074;47.540;19.072;2023-12-14T11:34:46;99903.94;;;7.63;82.86
75497;BME280;64074;47.540;19.072;2023-12-14T11:38:21;99907.19;;;7.60;82.47
75497;BME280;64074;47.540;19.072;2023-12-14T11:41:27;99909.66;;;7.57;83.01
75497;BME280;64074;47.540;19.072;2023-12-14T11:44:40;99917.47;;;7.58;83.20
75497;BME280;64074;47.540;19.072;2023-12-14T11:47:45;99909.22;;;7.50;83.15
75497;BME280;64074;47.540;19.072;2023-12-14T11:50:56;99913.34;;;7.90;82.47
75497;BME280;64074;47.540;19.072;2023-12-14T11:54:08;99909.00;;;7.70;82.42
75497;BME280;64074;47.540;19.072;2023-12-14T11:57:20;99916.41;;;7.83;82.26
75497;BME280;64074;47.540;19.072;2023-12-14T12:00:32;99920.53;;;7.99;81.31
75497;BME280;64074;47.540;19.072;2023-12-14T12:03:47;99925.16;;;8.18;80.93
75497;BME280;64074;47.540;19.072;2023-12-14T12:07:19;99928.63;;;7.99;82.29
75497;BME280;64074;47.540;19.072;2023-12-14T12:10:32;99928.69;;;7.94;81.74
75497;BME280;64074;47.540;19.072;2023-12-14T12:13:42;99929.72;;;7.98;80.85
75497;BME280;64074;47.540;19.072;2023-12-14T12:16:49;99926.25;;;8.17;81.08
75497;BME280;64074;47.540;19.072;2023-12-14T12:20:00;99937.41;;;8.10;81.00
75497;BME280;64074;47.540;19.072;2023-12-14T12:23:11;99936.53;;;8.15;81.26
75497;BME280;64074;47.540;19.072;2023-12-14T12:26:33;99942.66;;;8.01;81.41
75497;BME280;64074;47.540;19.072;2023-12-14T12:29:48;99950.81;;;7.96;81.53
75497;BME280;64074;47.540;19.072;2023-12-14T12:32:55;99947.41;;;7.86;81.88
75497;BME280;64074;47.540;19.072;2023-12-14T12:35:59;99949.75;;;7.92;82.00
75497;BME280;64074;47.540;19.072;2023-12-14T12:39:03;99969.75;;;7.91;81.41
75497;BME280;64074;47.540;19.072;2023-12-14T12:42:15;99967.00;;;7.96;81.89
75497;BME280;64074;47.540;19.072;2023-12-14T12:45:44;99981.13;;;8.12;81.76
75497;BME280;64074;47.540;19.072;2023-12-14T12:49:02;99976.81;;;8.11;81.47
75497;BME280;64074;47.540;19.072;2023-12-14T12:52:31;99983.94;;;8.02;81.50
75497;BME280;64074;47.540;19.072;2023-12-14T12:55:51;99992.50;;;8.33;81.05
75497;BME280;64074;47.540;19.072;2023-12-14T12:59:03;100001.53;;;8.23;80.80
75497;BME280;64074;47.540;19.072;2023-12-14T13:02:23;100008.47;;;8.06;81.75
75497;BME280;64074;47.540;19.072;2023-12-14T13:05:40;100016.28;;;8.07;81.97
75497;BME280;64074;47.540;19.072;2023-12-14T13:08:45;100014.75;;;8.25;80.47
75497;BME280;64074;47.540;19.072;2023-12-14T13:11:56;100019.13;;;8.21;81.01
75497;BME280;64074;47.540;19.072;2023-12-14T13:15:07;100020.09;;;8.30;80.89
75497;BME280;64074;47.540;19.072;2023-12-14T13:18:16;100021.94;;;8.35;81.30
75497;BME280;64074;47.540;19.072;2023-12-14T13:21:26;100022.91;;;8.20;81.53
75497;BME280;64074;47.540;19.072;2023-12-14T13:24:45;100021.00;;;8.20;81.47
75497;BME280;64074;47.540;19.072;2023-12-14T13:28:02;100035.19;;;8.07;81.96
75497;BME280;64074;47.540;19.072;2023-12-14T13:31:06;100038.50;;;7.99;82.75
75497;BME280;64074;47.540;19.072;2023-12-14T13:34:16;100044.94;;;8.03;82.50
75497;BME280;64074;47.540;19.072;2023-12-14T13:37:29;100043.22;;;8.12;82.59
75497;BME280;64074;47.540;19.072;2023-12-14T13:40:49;100057.28;;;8.09;82.25
75497;BME280;64074;47.540;19.072;2023-12-14T13:44:09;100061.00;;;8.18;82.33
75497;BME280;64074;47.540;19.072;2023-12-14T13:47:27;100071.66;;;8.05;82.28
75497;BME280;64074;47.540;19.072;2023-12-14T13:50:35;100075.69;;;8.07;82.47
75497;BME280;64074;47.540;19.072;2023-12-14T13:53:44;100079.28;;;8.26;81.74
75497;BME280;64074;47.540;19.072;2023-12-14T13:56:48;100080.06;;;8.27;81.03
75497;BME280;64074;47.540;19.072;2023-12-14T13:59:52;100091.09;;;8.30;81.50
75497;BME280;64074;47.540;19.072;2023-12-14T14:03:02;100090.41;;;8.20;81.29
75497;BME280;64074;47.540;19.072;2023-12-14T14:06:59;100105.13;;;8.32;81.79
75497;BME280;64074;47.540;19.072;2023-12-14T14:10:27;100114.19;;;8.18;81.60
75497;BME280;64074;47.540;19.072;2023-12-14T14:13:41;100129.50;;;7.98;82.30
75497;BME280;64074;47.540;19.072;2023-12-14T14:17:09;100120.78;;;8.07;82.13
75497;BME280;64074;47.540;19.072;2023-12-14T14:20:24;100124.16;;;7.93;83.11
75497;BME280;64074;47.540;19.072;2023-12-14T14:23:28;100132.38;;;8.07;82.42
75497;BME280;64074;47.540;19.072;2023-12-14T14:26:37;100131.97;;;7.95;82.42
75497;BME280;64074;47.540;19.072;2023-12-14T14:29:55;100146.25;;;7.95;82.80
75497;BME280;64074;47.540;19.072;2023-12-14T14:33:13;100145.75;;;7.88;82.96
75497;BME280;64074;47.540;19.072;2023-12-14T14:36:35;100156.72;;;8.02;82.60
75497;BME280;64074;47.540;19.072;2023-12-14T14:40:08;100157.91;;;7.86;83.12
75497;BME280;64074;47.540;19.072;2023-12-14T14:43:12;100157.88;;;7.91;82.79
75497;BME280;64074;47.540;19.072;2023-12-14T14:46:23;100175.44;;;7.88;82.24
75497;BME280;64074;47.540;19.072;2023-12-14T14:49:31;100164.50;;;7.75;83.20
75497;BME280;64074;47.540;19.072;2023-12-14T14:52:41;100162.28;;;7.82;82.76
75497;BME280;64074;47.540;19.072;2023-12-14T14:56:04;100169.28;;;7.83;82.26
75497;BME280;64074;47.540;19.072;2023-12-14T14:59:28;100167.38;;;7.83;82.33
75497;BME280;64074;47.540;19.072;2023-12-14T15:02:33;100175.78;;;7.82;82.30
75497;BME280;64074;47.540;19.072;2023-12-14T15:05:37;100180.69;;;7.75;82.62
75497;BME280;64074;47.540;19.072;2023-12-14T15:08:46;100184.38;;;7.84;82.53
75497;BME280;64074;47.540;19.072;2023-12-14T15:11:58;100197.34;;;7.82;82.47
75497;BME280;64074;47.540;19.072;2023-12-14T15:15:25;100194.97;;;7.75;82.40
75497;BME280;64074;47.540;19.072;2023-12-14T15:18:43;100202.50;;;7.78;82.30
75497;BME280;64074;47.540;19.072;2023-12-14T15:21:53;100213.63;;;7.71;82.67
75497;BME280;64074;47.540;19.072;2023-12-14T15:25:27;100224.94;;;7.74;82.94
75497;BME280;64074;47.540;19.072;2023-12-14T15:28:47;100224.63;;;7.80;83.30
75497;BME280;64074;47.540;19.072;2023-12-14T15:31:58;100240.69;;;7.56;84.60
75497;BME280;64074;47.540;19.072;2023-12-14T15:35:31;100246.56;;;7.68;84.37
75497;BME280;64074;47.540;19.072;2023-12-14T15:38:44;100240.66;;;7.61;85.18
75497;BME280;64074;47.540;19.072;2023-12-14T15:41:49;100252.25;;;7.62;85.33
75497;BME280;64074;47.540;19.072;2023-12-14T15:44:56;100259.59;;;7.51;85.94
75497;BME280;64074;47.540;19.072;2023-12-14T15:48:02;100261.72;;;7.54;85.57
75497;BME280;64074;47.540;19.072;2023-12-14T15:51:13;100260.97;;;7.49;86.28
75497;BME280;64074;47.540;19.072;2023-12-14T15:54:40;100273.91;;;7.47;86.39
75497;BME280;64074;47.540;19.072;2023-12-14T15:57:47;100278.50;;;7.46;85.91
75497;BME280;64074;47.540;19.072;2023-12-14T16:00:57;100283.91;;;7.46;86.64
75497;BME280;64074;47.540;19.072;2023-12-14T16:04:08;100287.16;;;7.38;86.71
75497;BME280;64074;47.540;19.072;2023-12-14T16:07:23;100287.19;;;7.18;87.36
75497;BME280;64074;47.540;19.072;2023-12-14T16:10:34;100289.06;;;7.32;86.62
75497;BME280;64074;47.540;19.072;2023-12-14T16:14:10;100296.84;;;7.39;86.13
75497;BME280;64074;47.540;19.072;2023-12-14T16:17:39;100310.66;;;7.27;86.78
75497;BME280;64074;47.540;19.072;2023-12-14T16:20:47;100321.16;;;7.34;86.55
75497;BME280;64074;47.540;19.072;2023-12-14T16:23:52;100314.16;;;7.28;86.87
75497;BME280;64074;47.540;19.072;2023-12-14T16:27:02;100323.59;;;7.30;86.86
75497;BME280;64074;47.540;19.072;2023-12-14T16:30:23;100331.41;;;7.32;86.72
75497;BME280;64074;47.540;19.072;2023-12-14T16:33:27;100324.41;;;7.26;87.38
75497;BME280;64074;47.540;19.072;2023-12-14T16:36:37;100329.50;;;7.37;86.80
75497;BME280;64074;47.540;19.072;2023-12-14T16:39:52;100336.50;;;7.33;86.62
75497;BME280;64074;47.540;19.072;2023-12-14T16:43:15;100340.56;;;7.31;86.29
75497;BME280;64074;47.540;19.072;2023-12-14T16:47:04;100351.94;;;7.23;86.21
75497;BME280;64074;47.540;19.072;2023-12-14T16:50:19;100355.97;;;7.20;86.37
75497;BME280;64074;47.540;19.072;2023-12-14T16:53:54;100354.91;;;7.21;86.06
75497;BME280;64074;47.540;19.072;2023-12-14T16:57:18;100361.88;;;7.27;85.60
75497;BME280;64074;47.540;19.072;2023-12-14T17:00:39;100364.06;;;7.20;85.40
75497;BME280;64074;47.540;19.072;2023-12-14T17:03:56;100371.88;;;7.17;85.48
75497;BME280;64074;47.540;19.072;2023-12-14T17:07:24;100368.09;;;7.13;85.52
75497;BME280;64074;47.540;19.072;2023-12-14T17:10:46;100385.06;;;7.18;85.31
75497;BME280;64074;47.540;19.072;2023-12-14T17:14:02;100392.63;;;7.16;85.06
75497;BME280;64074;47.540;19.072;2023-12-14T17:17:22;100398.28;;;7.15;85.01